createdAt,value
2017-10-22T00:02:33.767Z,2.47
2017-10-22T00:07:35.745Z,2.20
2017-10-22T00:12:37.708Z,2.60
2017-10-22T00:17:39.767Z,1.93
2017-10-22T00:22:41.680Z,2.33
2017-10-22T00:27:43.587Z,2.10
2017-10-22T00:32:45.592Z,2.70
2017-10-22T00:37:47.563Z,2.37
2017-10-22T00:42:49.620Z,2.60
2017-10-22T00:47:51.591Z,2.80
2017-10-22T00:52:53.503Z,3.10
2017-10-22T00:57:55.514Z,3.60
2017-10-22T01:02:57.527Z,3.33
2017-10-22T01:07:59.433Z,2.63
2017-10-22T01:13:01.398Z,2.80
2017-10-22T01:18:03.409Z,2.57
2017-10-22T01:23:05.444Z,2.37
2017-10-22T01:28:07.522Z,3.30
2017-10-22T01:33:09.519Z,2.57
2017-10-22T01:38:11.535Z,2.97
2017-10-22T01:43:13.599Z,2.90
2017-10-22T01:48:15.602Z,2.23
2017-10-22T01:53:17.642Z,2.43
2017-10-22T01:58:19.756Z,2.70
2017-10-22T02:03:21.737Z,2.83
2017-10-22T02:08:24.518Z,3.37
2017-10-22T02:13:26.556Z,2.30
2017-10-22T02:18:28.520Z,2.97
2017-10-22T02:23:30.436Z,2.50
2017-10-22T02:28:32.394Z,2.60
2017-10-22T02:33:34.378Z,2.60
2017-10-22T02:38:37.069Z,1.87
2017-10-22T02:43:39.096Z,2.53
2017-10-22T02:48:41.760Z,3.43
2017-10-22T02:53:43.686Z,2.30
2017-10-22T02:58:45.579Z,1.77
2017-10-22T03:03:47.525Z,2.50
2017-10-22T03:08:49.492Z,2.17
2017-10-22T03:13:51.448Z,2.63
2017-10-22T03:18:58.341Z,2.10
2017-10-22T03:24:06.434Z,2.03
2017-10-22T03:29:09.487Z,1.90
2017-10-22T03:34:11.759Z,1.63
2017-10-22T03:39:13.744Z,2.20
2017-10-22T03:44:15.837Z,2.23
2017-10-22T03:49:17.740Z,2.20
2017-10-22T03:54:19.687Z,2.63
2017-10-22T03:59:21.611Z,2.27
2017-10-22T04:04:23.509Z,2.23
2017-10-22T04:09:25.492Z,2.40
2017-10-22T04:14:28.415Z,1.80
2017-10-22T04:19:31.072Z,2.40
2017-10-22T04:24:33.040Z,1.90
2017-10-22T04:29:38.696Z,2.43
2017-10-22T04:34:40.723Z,1.87
2017-10-22T04:39:42.714Z,2.10
2017-10-22T04:44:44.756Z,1.73
2017-10-22T04:49:46.668Z,1.37
2017-10-22T04:54:48.917Z,2.03
2017-10-22T04:59:50.899Z,2.60
2017-10-22T05:04:53.249Z,1.90
2017-10-22T05:09:55.354Z,1.50
2017-10-22T05:14:57.240Z,1.87
2017-10-22T05:19:59.968Z,1.70
2017-10-22T05:25:01.916Z,1.80
2017-10-22T05:30:03.899Z,1.80
2017-10-22T05:35:05.979Z,2.23
2017-10-22T05:40:07.945Z,1.67
2017-10-22T05:45:09.937Z,1.57
2017-10-22T05:50:12.606Z,1.83
2017-10-22T05:55:14.573Z,1.33
2017-10-22T06:00:16.528Z,1.80
2017-10-22T06:05:24.929Z,1.40
2017-10-22T06:10:27.222Z,1.83
2017-10-22T06:15:30.000Z,1.80
2017-10-22T06:20:31.917Z,1.63
2017-10-22T06:25:33.863Z,1.30
2017-10-22T06:30:36.575Z,1.60
2017-10-22T06:35:39.307Z,2.07
2017-10-22T06:40:42.083Z,1.70
2017-10-22T06:45:44.074Z,1.70
2017-10-22T06:50:46.141Z,1.70
2017-10-22T06:55:48.937Z,1.70
2017-10-22T07:00:51.020Z,1.60
2017-10-22T07:05:53.152Z,2.07
2017-10-22T07:10:55.226Z,1.80
2017-10-22T07:15:57.149Z,2.33
2017-10-22T07:20:59.110Z,1.37
2017-10-22T07:26:01.065Z,1.90
2017-10-22T07:31:03.012Z,1.50
2017-10-22T07:36:04.995Z,1.30
2017-10-22T07:41:08.059Z,2.50
2017-10-22T07:46:10.150Z,1.20
2017-10-22T07:51:12.939Z,1.00
2017-10-22T07:56:14.885Z,1.40
2017-10-22T08:01:16.852Z,1.60
2017-10-22T08:06:18.833Z,1.50
2017-10-22T08:11:20.831Z,1.50
2017-10-22T08:16:22.821Z,1.20
2017-10-22T08:21:24.868Z,1.63
2017-10-22T08:26:26.795Z,1.00
2017-10-22T08:31:28.742Z,1.57
2017-10-22T08:36:30.696Z,1.20
2017-10-22T08:41:33.397Z,1.40
2017-10-22T08:46:35.536Z,1.00
2017-10-22T08:51:38.228Z,1.27
2017-10-22T08:56:40.238Z,1.33
2017-10-22T09:01:42.240Z,1.13
2017-10-22T09:06:44.228Z,1.20
2017-10-22T09:11:46.248Z,1.10
2017-10-22T09:16:48.288Z,1.20
2017-10-22T09:21:50.299Z,0.80
2017-10-22T09:26:52.379Z,1.30
2017-10-22T09:31:54.373Z,1.50
2017-10-22T09:36:56.332Z,1.60
2017-10-22T09:41:58.399Z,1.70
2017-10-22T09:47:01.162Z,2.10
2017-10-22T09:52:03.197Z,2.07
2017-10-22T09:57:05.175Z,2.07
2017-10-22T10:02:07.228Z,3.10
2017-10-22T10:07:09.259Z,2.50
2017-10-22T10:12:11.970Z,2.67
2017-10-22T10:17:14.759Z,3.23
2017-10-22T10:22:16.807Z,3.90
2017-10-22T10:27:19.535Z,4.43
2017-10-22T10:32:21.581Z,5.87
2017-10-22T10:37:23.572Z,5.97
2017-10-22T10:42:25.600Z,6.53
2017-10-22T10:47:27.671Z,6.13
2017-10-22T10:52:29.712Z,7.73
2017-10-22T10:57:31.756Z,7.07
2017-10-22T11:02:34.756Z,7.33
2017-10-22T11:07:37.397Z,7.57
2017-10-22T11:12:40.774Z,7.00
2017-10-22T11:17:43.315Z,6.50
2017-10-22T11:22:45.916Z,5.93
2017-10-22T11:27:47.844Z,5.93
2017-10-22T11:32:50.465Z,5.40
2017-10-22T11:37:52.460Z,5.50
2017-10-22T11:42:54.880Z,5.53
2017-10-22T11:47:56.877Z,5.03
2017-10-22T11:52:58.853Z,5.70
2017-10-22T11:58:00.812Z,5.23
2017-10-22T12:03:02.806Z,5.57
2017-10-22T12:08:04.771Z,5.83
2017-10-22T12:13:06.771Z,5.00
2017-10-22T12:18:08.745Z,5.60
2017-10-22T12:23:10.736Z,6.03
2017-10-22T12:28:12.652Z,5.00
2017-10-22T12:33:15.339Z,5.90
2017-10-22T12:38:17.351Z,5.93
2017-10-22T12:43:19.350Z,4.83
2017-10-22T12:48:21.414Z,5.20
2017-10-22T12:53:23.351Z,5.20
2017-10-22T12:58:25.296Z,4.83
2017-10-22T13:03:27.304Z,5.03
2017-10-22T13:08:30.056Z,5.27
2017-10-22T13:13:34.117Z,5.33
2017-10-22T13:18:36.481Z,4.90
2017-10-22T13:23:38.905Z,4.63
2017-10-22T13:28:51.413Z,4.80
2017-10-22T13:33:54.071Z,5.23
2017-10-22T13:38:56.120Z,4.83
2017-10-22T13:43:58.132Z,5.40
2017-10-22T13:49:00.127Z,5.00
2017-10-22T13:54:02.104Z,4.93
2017-10-22T13:59:04.811Z,5.30
2017-10-22T14:04:06.725Z,4.80
2017-10-22T14:09:08.640Z,5.70
2017-10-22T14:14:11.328Z,4.93
2017-10-22T14:19:13.272Z,5.90
2017-10-22T14:24:15.208Z,5.27
2017-10-22T14:29:17.871Z,4.83
2017-10-22T14:34:20.537Z,4.87
2017-10-22T14:39:22.459Z,5.10
2017-10-22T14:44:24.456Z,4.40
2017-10-22T14:49:26.438Z,5.00
2017-10-22T14:54:29.307Z,4.10
2017-10-22T14:59:31.239Z,3.90
2017-10-22T15:04:34.030Z,4.00
2017-10-22T15:09:36.134Z,4.20
2017-10-22T15:14:38.170Z,4.37
2017-10-22T15:19:40.866Z,4.50
2017-10-22T15:24:42.787Z,5.90
2017-10-22T15:29:45.480Z,6.37
2017-10-22T15:34:47.858Z,6.93
2017-10-22T15:39:49.783Z,7.70
2017-10-22T15:44:51.755Z,8.00
2017-10-22T15:49:53.718Z,7.83
2017-10-22T15:54:55.622Z,8.07
2017-10-22T15:59:57.561Z,7.87
2017-10-22T16:05:01.676Z,9.10
2017-10-22T16:10:04.514Z,8.60
2017-10-22T16:15:07.179Z,9.27
2017-10-22T16:20:09.184Z,10.13
2017-10-22T16:25:11.267Z,9.80
2017-10-22T16:30:13.991Z,9.60
2017-10-22T16:35:16.649Z,10.03
2017-10-22T16:40:18.580Z,9.73
2017-10-22T16:45:20.535Z,10.97
2017-10-22T16:50:22.542Z,11.00
2017-10-22T16:55:24.473Z,10.07
2017-10-22T17:00:26.449Z,9.70
2017-10-22T17:05:28.428Z,9.13
2017-10-22T17:10:30.417Z,8.60
2017-10-22T17:15:32.353Z,9.80
2017-10-22T17:20:34.358Z,9.67
2017-10-22T17:25:37.047Z,11.00
2017-10-22T17:30:38.945Z,10.40
2017-10-22T17:35:40.852Z,10.60
2017-10-22T17:40:42.885Z,10.50
2017-10-22T17:45:45.600Z,10.93
2017-10-22T17:50:48.231Z,9.87
2017-10-22T17:55:50.932Z,9.70
2017-10-22T18:00:53.380Z,9.07
2017-10-22T18:05:55.362Z,8.57
2017-10-22T18:10:59.280Z,9.23
2017-10-22T18:16:01.456Z,8.73
2017-10-22T18:21:03.520Z,10.33
2017-10-22T18:26:05.571Z,9.20
2017-10-22T18:31:07.548Z,7.10
2017-10-22T18:36:10.307Z,7.50
2017-10-22T18:41:12.249Z,5.47
2017-10-22T18:46:14.422Z,5.17
2017-10-22T18:51:16.333Z,4.10
2017-10-22T18:56:18.295Z,3.70
2017-10-22T19:01:20.279Z,3.87
2017-10-22T19:06:22.784Z,3.60
2017-10-22T19:11:25.107Z,3.57
2017-10-22T19:16:27.089Z,3.30
2017-10-22T19:21:29.012Z,3.03
2017-10-22T19:26:30.944Z,3.97
2017-10-22T19:31:32.836Z,3.70
2017-10-22T19:36:34.741Z,3.27
2017-10-22T19:41:36.644Z,3.57
2017-10-22T19:46:38.607Z,3.70
2017-10-22T19:51:41.443Z,3.73
2017-10-22T19:56:44.255Z,3.17
2017-10-22T20:01:46.972Z,3.30
2017-10-22T20:06:49.671Z,3.30
2017-10-22T20:11:51.727Z,3.30
2017-10-22T20:16:53.640Z,3.93
2017-10-22T20:21:55.547Z,4.27
2017-10-22T20:26:57.563Z,4.07
2017-10-22T20:31:59.582Z,5.27
2017-10-22T20:37:01.615Z,4.20
2017-10-22T20:42:03.600Z,4.50
2017-10-22T20:47:05.592Z,4.53
2017-10-22T20:52:07.500Z,4.10
2017-10-22T20:57:09.420Z,4.17
2017-10-22T21:02:11.372Z,3.77
2017-10-22T21:07:13.315Z,3.70
2017-10-22T21:12:15.320Z,4.30
2017-10-22T21:17:17.248Z,4.93
2017-10-22T21:22:19.185Z,3.70
2017-10-22T21:27:21.845Z,4.10
2017-10-22T21:32:23.776Z,4.47
2017-10-22T21:37:25.857Z,4.30
2017-10-22T21:42:27.829Z,4.50
2017-10-22T21:47:29.834Z,5.03
2017-10-22T21:52:31.822Z,5.37
2017-10-22T21:57:34.481Z,5.37
2017-10-22T22:02:36.483Z,6.23
2017-10-22T22:07:38.488Z,6.93
2017-10-22T22:12:40.427Z,5.90
2017-10-22T22:17:42.407Z,5.07
2017-10-22T22:22:44.314Z,6.17
2017-10-22T22:27:46.268Z,5.87
2017-10-22T22:32:48.975Z,5.20
2017-10-22T22:37:52.340Z,4.83
2017-10-22T22:42:55.082Z,4.77
2017-10-22T22:47:57.915Z,4.33
2017-10-22T22:53:00.647Z,4.17
2017-10-22T22:58:03.244Z,4.77
2017-10-22T23:03:05.163Z,5.77
2017-10-22T23:08:07.060Z,6.03
2017-10-22T23:13:08.995Z,6.50
2017-10-22T23:18:10.965Z,6.90
2017-10-22T23:23:12.866Z,7.20
2017-10-22T23:28:15.350Z,7.17
2017-10-22T23:33:17.725Z,8.20
2017-10-22T23:38:20.436Z,8.33
2017-10-22T23:43:23.149Z,8.97
2017-10-22T23:48:25.126Z,9.40
2017-10-22T23:53:27.046Z,10.07
2017-10-22T23:58:28.978Z,10.67
